PKO YPPD-YBGD
Flight info
| Callsign | PKO |
|---|---|
| Flight time | 1h 2m |
| Altitude | 6000 |
| Route | BUTON |
| Aircraft | SR22/L-SDGRY/S |
Departure
| Time | 2026-04-28 02:00 |
|---|---|
| Airport | Port Hedland International Airport (YPPD) |
Arrival
| Time | 2026-04-28 03:03 |
|---|---|
| Airport | Boolgeeda (YBGD) |
| Time | Latitude | Longitude | Altitude | Speed | Heading |
|---|---|---|---|---|---|
| 2026-04-28 01:49 | -20.37730 | 118.63006 | 43 ft | 0 kts | 91° |
| 2026-04-28 01:52 | -20.37730 | 118.63007 | 43 ft | 0 kts | 90° |
| 2026-04-28 01:53 | -20.37730 | 118.63009 | 43 ft | 0 kts | 98° |
| 2026-04-28 01:53 | -20.37732 | 118.63014 | 43 ft | 3 kts | 111° |
| 2026-04-28 01:53 | -20.37764 | 118.63034 | 43 ft | 5 kts | 167° |
| 2026-04-28 01:53 | -20.37815 | 118.63042 | 43 ft | 10 kts | 157° |
| 2026-04-28 01:54 | -20.37871 | 118.63052 | 44 ft | 3 kts | 191° |
| 2026-04-28 01:54 | -20.37918 | 118.63051 | 44 ft | 8 kts | 191° |
| 2026-04-28 01:54 | -20.37959 | 118.62999 | 44 ft | 6 kts | 250° |
| 2026-04-28 01:54 | -20.37943 | 118.62946 | 43 ft | 2 kts | 295° |
| 2026-04-28 01:55 | -20.37894 | 118.62894 | 44 ft | 13 kts | 316° |
| 2026-04-28 01:55 | -20.37839 | 118.62842 | 43 ft | 11 kts | 316° |
| 2026-04-28 01:55 | -20.37784 | 118.62786 | 43 ft | 10 kts | 323° |
| 2026-04-28 01:55 | -20.37741 | 118.62744 | 42 ft | 9 kts | 322° |
| 2026-04-28 01:56 | -20.37690 | 118.62697 | 41 ft | 10 kts | 316° |
| 2026-04-28 01:56 | -20.37636 | 118.62643 | 40 ft | 11 kts | 316° |
| 2026-04-28 01:56 | -20.37570 | 118.62579 | 38 ft | 14 kts | 318° |
| 2026-04-28 01:56 | -20.37497 | 118.62511 | 38 ft | 11 kts | 318° |
| 2026-04-28 01:57 | -20.37432 | 118.62445 | 37 ft | 13 kts | 317° |
| 2026-04-28 01:57 | -20.37362 | 118.62382 | 38 ft | 12 kts | 317° |
| 2026-04-28 01:57 | -20.37307 | 118.62315 | 38 ft | 11 kts | 286° |
| 2026-04-28 01:57 | -20.37338 | 118.62256 | 38 ft | 10 kts | 227° |
| 2026-04-28 01:58 | -20.37363 | 118.62225 | 38 ft | 0 kts | 221° |
| 2026-04-28 01:58 | -20.37364 | 118.62224 | 38 ft | 0 kts | 230° |
| 2026-04-28 01:58 | -20.37407 | 118.62172 | 38 ft | 9 kts | 217° |
| 2026-04-28 01:59 | -20.37422 | 118.62174 | 37 ft | 0 kts | 135° |
| 2026-04-28 02:00 | -20.37528 | 118.62277 | 38 ft | 53 kts | 139° |
| 2026-04-28 02:00 | -20.37941 | 118.62666 | 169 ft | 90 kts | 137° |
| 2026-04-28 02:00 | -20.38451 | 118.63158 | 353 ft | 109 kts | 133° |
| 2026-04-28 02:00 | -20.38976 | 118.63737 | 755 ft | 103 kts | 116° |
| 2026-04-28 02:01 | -20.38884 | 118.64445 | 1076 ft | 106 kts | 46° |
| 2026-04-28 02:01 | -20.38186 | 118.64650 | 1413 ft | 114 kts | 350° |
| 2026-04-28 02:01 | -20.37586 | 118.64085 | 1734 ft | 126 kts | 291° |
| 2026-04-28 02:01 | -20.37740 | 118.63184 | 2008 ft | 132 kts | 225° |
| 2026-04-28 02:02 | -20.38479 | 118.62605 | 2347 ft | 128 kts | 215° |
| 2026-04-28 02:02 | -20.39180 | 118.62078 | 2738 ft | 121 kts | 207° |
| 2026-04-28 02:02 | -20.39913 | 118.61620 | 3058 ft | 122 kts | 202° |
| 2026-04-28 02:02 | -20.40205 | 118.61451 | 3179 ft | 122 kts | 202° |
| 2026-04-28 02:03 | -20.40787 | 118.61126 | 3437 ft | 121 kts | 201° |
| 2026-04-28 02:03 | -20.41540 | 118.60719 | 3736 ft | 123 kts | 200° |
| 2026-04-28 02:03 | -20.42316 | 118.60308 | 4004 ft | 128 kts | 199° |
| 2026-04-28 02:03 | -20.42984 | 118.59958 | 4183 ft | 133 kts | 199° |
| 2026-04-28 02:04 | -20.43838 | 118.59512 | 4430 ft | 137 kts | 199° |
| 2026-04-28 02:04 | -20.44693 | 118.59065 | 4699 ft | 137 kts | 199° |
| 2026-04-28 02:04 | -20.45556 | 118.58616 | 4959 ft | 138 kts | 199° |
| 2026-04-28 02:04 | -20.46430 | 118.58161 | 5227 ft | 139 kts | 199° |
| 2026-04-28 02:05 | -20.47299 | 118.57709 | 5482 ft | 140 kts | 199° |
| 2026-04-28 02:05 | -20.48185 | 118.57249 | 5723 ft | 141 kts | 199° |
| 2026-04-28 02:05 | -20.49078 | 118.56785 | 5956 ft | 142 kts | 199° |
| 2026-04-28 02:05 | -20.49971 | 118.56320 | 6203 ft | 142 kts | 199° |
| 2026-04-28 02:06 | -20.50855 | 118.55861 | 6439 ft | 142 kts | 199° |
| 2026-04-28 02:06 | -20.51758 | 118.55392 | 6663 ft | 143 kts | 200° |
| 2026-04-28 02:06 | -20.52661 | 118.54922 | 6900 ft | 143 kts | 200° |
| 2026-04-28 02:06 | -20.53549 | 118.54459 | 7113 ft | 144 kts | 200° |
| 2026-04-28 02:07 | -20.54457 | 118.53987 | 7323 ft | 144 kts | 200° |
| 2026-04-28 02:07 | -20.55371 | 118.53512 | 7530 ft | 145 kts | 200° |
| 2026-04-28 02:07 | -20.56272 | 118.53043 | 7726 ft | 145 kts | 201° |
| 2026-04-28 02:07 | -20.57190 | 118.52566 | 7926 ft | 145 kts | 201° |
| 2026-04-28 02:08 | -20.58126 | 118.52079 | 7985 ft | 156 kts | 201° |
| 2026-04-28 02:08 | -20.59136 | 118.51553 | 7993 ft | 166 kts | 202° |
| 2026-04-28 02:08 | -20.60212 | 118.50992 | 7991 ft | 173 kts | 202° |
| 2026-04-28 02:08 | -20.61308 | 118.50421 | 7991 ft | 177 kts | 202° |
| 2026-04-28 02:09 | -20.62430 | 118.49836 | 7992 ft | 180 kts | 202° |
| 2026-04-28 02:09 | -20.63567 | 118.49244 | 7991 ft | 182 kts | 202° |
| 2026-04-28 02:09 | -20.64712 | 118.48647 | 7992 ft | 183 kts | 203° |
| 2026-04-28 02:09 | -20.65868 | 118.48045 | 7987 ft | 184 kts | 202° |
| 2026-04-28 02:10 | -20.67029 | 118.47440 | 7989 ft | 184 kts | 203° |
| 2026-04-28 02:10 | -20.68192 | 118.46834 | 7992 ft | 185 kts | 202° |
| 2026-04-28 02:10 | -20.69352 | 118.46230 | 7994 ft | 185 kts | 203° |
| 2026-04-28 02:10 | -20.70511 | 118.45625 | 7989 ft | 185 kts | 202° |
| 2026-04-28 02:11 | -20.71681 | 118.45015 | 7992 ft | 185 kts | 203° |
| 2026-04-28 02:11 | -20.72850 | 118.44405 | 7988 ft | 185 kts | 202° |
| 2026-04-28 02:11 | -20.73997 | 118.43807 | 7994 ft | 185 kts | 203° |
| 2026-04-28 02:11 | -20.75165 | 118.43198 | 7995 ft | 186 kts | 202° |
| 2026-04-28 02:12 | -20.76339 | 118.42586 | 7991 ft | 186 kts | 202° |
| 2026-04-28 02:12 | -20.77513 | 118.41973 | 7991 ft | 186 kts | 202° |
| 2026-04-28 02:12 | -20.78674 | 118.41367 | 7993 ft | 186 kts | 202° |
| 2026-04-28 02:12 | -20.79852 | 118.40752 | 7993 ft | 186 kts | 202° |
| 2026-04-28 02:13 | -20.81009 | 118.40149 | 7993 ft | 186 kts | 202° |
| 2026-04-28 02:13 | -20.82187 | 118.39535 | 7994 ft | 186 kts | 202° |
| 2026-04-28 02:13 | -20.83354 | 118.38929 | 7997 ft | 186 kts | 202° |
| 2026-04-28 02:13 | -20.84526 | 118.38319 | 7999 ft | 186 kts | 202° |
| 2026-04-28 02:14 | -20.85694 | 118.37709 | 7993 ft | 186 kts | 202° |
| 2026-04-28 02:14 | -20.86870 | 118.37095 | 7998 ft | 187 kts | 202° |
| 2026-04-28 02:14 | -20.88032 | 118.36488 | 8001 ft | 186 kts | 202° |
| 2026-04-28 02:14 | -20.89208 | 118.35874 | 7996 ft | 186 kts | 202° |
| 2026-04-28 02:15 | -20.91551 | 118.34649 | 7996 ft | 186 kts | 202° |
| 2026-04-28 02:15 | -20.92718 | 118.34039 | 8001 ft | 186 kts | 203° |
| 2026-04-28 02:15 | -20.93891 | 118.33425 | 7999 ft | 187 kts | 203° |
| 2026-04-28 02:16 | -20.95066 | 118.32811 | 8002 ft | 186 kts | 203° |
| 2026-04-28 02:16 | -20.96244 | 118.32194 | 8002 ft | 186 kts | 203° |
| 2026-04-28 02:16 | -20.97403 | 118.31588 | 8002 ft | 186 kts | 203° |
| 2026-04-28 02:16 | -20.98581 | 118.30971 | 7999 ft | 187 kts | 203° |
| 2026-04-28 02:17 | -20.99750 | 118.30359 | 7998 ft | 187 kts | 203° |
| 2026-04-28 02:17 | -21.00916 | 118.29748 | 7999 ft | 187 kts | 203° |
| 2026-04-28 02:17 | -21.02106 | 118.29125 | 8001 ft | 187 kts | 203° |
| 2026-04-28 02:17 | -21.03278 | 118.28512 | 8002 ft | 186 kts | 203° |
| 2026-04-28 02:18 | -21.04451 | 118.27898 | 8002 ft | 187 kts | 203° |
| 2026-04-28 02:18 | -21.05628 | 118.27280 | 8007 ft | 186 kts | 203° |
| 2026-04-28 02:18 | -21.06795 | 118.26668 | 8008 ft | 187 kts | 203° |
| 2026-04-28 02:18 | -21.07976 | 118.26050 | 8007 ft | 187 kts | 203° |
| 2026-04-28 02:19 | -21.09150 | 118.25434 | 8007 ft | 187 kts | 203° |
| 2026-04-28 02:19 | -21.10333 | 118.24814 | 8010 ft | 187 kts | 203° |
| 2026-04-28 02:19 | -21.11512 | 118.24196 | 8003 ft | 187 kts | 203° |
| 2026-04-28 02:19 | -21.12699 | 118.23573 | 8001 ft | 187 kts | 204° |
| 2026-04-28 02:20 | -21.13880 | 118.22954 | 8005 ft | 186 kts | 203° |
| 2026-04-28 02:20 | -21.15051 | 118.22339 | 8008 ft | 186 kts | 203° |
| 2026-04-28 02:20 | -21.16219 | 118.21726 | 8012 ft | 186 kts | 204° |
| 2026-04-28 02:20 | -21.17387 | 118.21113 | 8009 ft | 186 kts | 203° |
| 2026-04-28 02:21 | -21.18561 | 118.20496 | 8011 ft | 186 kts | 203° |
| 2026-04-28 02:21 | -21.19728 | 118.19884 | 8011 ft | 187 kts | 204° |
| 2026-04-28 02:21 | -21.20911 | 118.19262 | 8014 ft | 186 kts | 204° |
| 2026-04-28 02:21 | -21.22071 | 118.18652 | 8010 ft | 187 kts | 204° |
| 2026-04-28 02:22 | -21.23242 | 118.18038 | 8012 ft | 186 kts | 204° |
| 2026-04-28 02:22 | -21.24419 | 118.17419 | 8013 ft | 187 kts | 203° |
| 2026-04-28 02:22 | -21.25584 | 118.16807 | 8014 ft | 187 kts | 204° |
| 2026-04-28 02:22 | -21.26757 | 118.16190 | 8016 ft | 187 kts | 204° |
| 2026-04-28 02:23 | -21.27935 | 118.15571 | 8025 ft | 187 kts | 204° |
| 2026-04-28 02:23 | -21.29122 | 118.14947 | 8030 ft | 187 kts | 204° |
| 2026-04-28 02:23 | -21.30211 | 118.14374 | 8032 ft | 186 kts | 204° |
| 2026-04-28 02:23 | -21.31388 | 118.13755 | 8035 ft | 186 kts | 204° |
| 2026-04-28 02:24 | -21.32548 | 118.13145 | 8034 ft | 185 kts | 204° |
| 2026-04-28 02:24 | -21.33708 | 118.12534 | 8033 ft | 184 kts | 204° |
| 2026-04-28 02:24 | -21.34870 | 118.11923 | 8033 ft | 183 kts | 204° |
| 2026-04-28 02:24 | -21.36022 | 118.11316 | 8034 ft | 183 kts | 204° |
| 2026-04-28 02:25 | -21.37166 | 118.10714 | 8034 ft | 183 kts | 204° |
| 2026-04-28 02:25 | -21.38313 | 118.10110 | 8035 ft | 183 kts | 204° |
| 2026-04-28 02:25 | -21.39468 | 118.09502 | 8035 ft | 183 kts | 204° |
| 2026-04-28 02:25 | -21.40607 | 118.08901 | 8036 ft | 183 kts | 204° |
| 2026-04-28 02:26 | -21.41715 | 118.08221 | 8035 ft | 183 kts | 211° |
| 2026-04-28 02:26 | -21.42784 | 118.07468 | 8036 ft | 183 kts | 212° |
| 2026-04-28 02:26 | -21.43864 | 118.06700 | 8037 ft | 183 kts | 212° |
| 2026-04-28 02:26 | -21.44923 | 118.05945 | 8038 ft | 183 kts | 212° |
| 2026-04-28 02:27 | -21.45990 | 118.05183 | 8038 ft | 183 kts | 212° |
| 2026-04-28 02:27 | -21.47056 | 118.04420 | 8038 ft | 183 kts | 212° |
| 2026-04-28 02:27 | -21.48136 | 118.03646 | 8039 ft | 183 kts | 212° |
| 2026-04-28 02:27 | -21.49196 | 118.02886 | 8040 ft | 183 kts | 212° |
| 2026-04-28 02:28 | -21.50258 | 118.02125 | 8039 ft | 183 kts | 212° |
| 2026-04-28 02:28 | -21.51338 | 118.01350 | 8040 ft | 183 kts | 212° |
| 2026-04-28 02:28 | -21.52408 | 118.00582 | 8040 ft | 183 kts | 212° |
| 2026-04-28 02:28 | -21.53474 | 117.99817 | 8041 ft | 183 kts | 212° |
| 2026-04-28 02:29 | -21.54526 | 117.99063 | 8045 ft | 183 kts | 212° |
| 2026-04-28 02:29 | -21.55406 | 117.98431 | 8044 ft | 184 kts | 212° |
| 2026-04-28 02:29 | -21.56469 | 117.97669 | 8044 ft | 184 kts | 212° |
| 2026-04-28 02:29 | -21.56839 | 117.97402 | 8044 ft | 184 kts | 212° |
| 2026-04-28 02:30 | -21.57327 | 117.97051 | 8012 ft | 183 kts | 211° |
| 2026-04-28 02:30 | -21.58390 | 117.96288 | 8048 ft | 183 kts | 211° |
| 2026-04-28 02:30 | -21.59474 | 117.95510 | 7969 ft | 189 kts | 211° |
| 2026-04-28 02:31 | -21.60569 | 117.94724 | 7952 ft | 189 kts | 211° |
| 2026-04-28 02:31 | -21.61671 | 117.93931 | 7948 ft | 188 kts | 211° |
| 2026-04-28 02:31 | -21.62763 | 117.93146 | 7943 ft | 188 kts | 211° |
| 2026-04-28 02:31 | -21.63865 | 117.92354 | 7944 ft | 188 kts | 212° |
| 2026-04-28 02:32 | -21.64952 | 117.91573 | 7943 ft | 189 kts | 212° |
| 2026-04-28 02:32 | -21.66048 | 117.90784 | 7940 ft | 189 kts | 212° |
| 2026-04-28 02:32 | -21.67152 | 117.89990 | 7944 ft | 189 kts | 212° |
| 2026-04-28 02:32 | -21.68250 | 117.89200 | 7940 ft | 189 kts | 212° |
| 2026-04-28 02:33 | -21.69352 | 117.88407 | 7943 ft | 189 kts | 212° |
| 2026-04-28 02:33 | -21.70446 | 117.87619 | 7941 ft | 189 kts | 212° |
| 2026-04-28 02:33 | -21.71539 | 117.86833 | 7942 ft | 189 kts | 212° |
| 2026-04-28 02:33 | -21.72645 | 117.86037 | 7942 ft | 188 kts | 212° |
| 2026-04-28 02:34 | -21.73736 | 117.85252 | 7943 ft | 188 kts | 212° |
| 2026-04-28 02:34 | -21.74828 | 117.84465 | 7943 ft | 188 kts | 212° |
| 2026-04-28 02:34 | -21.75916 | 117.83676 | 7940 ft | 188 kts | 215° |
| 2026-04-28 02:34 | -21.76893 | 117.82714 | 7947 ft | 188 kts | 224° |
| 2026-04-28 02:35 | -21.77820 | 117.81725 | 7945 ft | 188 kts | 225° |
| 2026-04-28 02:35 | -21.78743 | 117.80718 | 7951 ft | 188 kts | 226° |
| 2026-04-28 02:35 | -21.79669 | 117.79696 | 7955 ft | 189 kts | 226° |
| 2026-04-28 02:35 | -21.80586 | 117.78677 | 7957 ft | 189 kts | 226° |
| 2026-04-28 02:36 | -21.81511 | 117.77644 | 7957 ft | 189 kts | 226° |
| 2026-04-28 02:36 | -21.82424 | 117.76622 | 7960 ft | 189 kts | 226° |
| 2026-04-28 02:36 | -21.83338 | 117.75600 | 7957 ft | 189 kts | 226° |
| 2026-04-28 02:36 | -21.84248 | 117.74579 | 7964 ft | 188 kts | 226° |
| 2026-04-28 02:37 | -21.85159 | 117.73556 | 7965 ft | 188 kts | 226° |
| 2026-04-28 02:37 | -21.86077 | 117.72527 | 7967 ft | 188 kts | 226° |
| 2026-04-28 02:37 | -21.86980 | 117.71513 | 7969 ft | 188 kts | 226° |
| 2026-04-28 02:37 | -21.87896 | 117.70484 | 7971 ft | 189 kts | 226° |
| 2026-04-28 02:38 | -21.88814 | 117.69452 | 7970 ft | 189 kts | 226° |
| 2026-04-28 02:38 | -21.89725 | 117.68429 | 7971 ft | 189 kts | 226° |
| 2026-04-28 02:38 | -21.90641 | 117.67399 | 7970 ft | 190 kts | 226° |
| 2026-04-28 02:38 | -21.91557 | 117.66370 | 7974 ft | 189 kts | 226° |
| 2026-04-28 02:39 | -21.92461 | 117.65353 | 7975 ft | 189 kts | 226° |
| 2026-04-28 02:39 | -21.93377 | 117.64323 | 7978 ft | 189 kts | 226° |
| 2026-04-28 02:39 | -21.94294 | 117.63291 | 7979 ft | 189 kts | 226° |
| 2026-04-28 02:39 | -21.95194 | 117.62278 | 7976 ft | 189 kts | 226° |
| 2026-04-28 02:40 | -21.96109 | 117.61249 | 7980 ft | 189 kts | 226° |
| 2026-04-28 02:40 | -21.97014 | 117.60229 | 7981 ft | 188 kts | 226° |
| 2026-04-28 02:40 | -21.97926 | 117.59204 | 7981 ft | 188 kts | 227° |
| 2026-04-28 02:40 | -21.98841 | 117.58174 | 7983 ft | 189 kts | 227° |
| 2026-04-28 02:41 | -21.99754 | 117.57146 | 7983 ft | 189 kts | 227° |
| 2026-04-28 02:41 | -22.00661 | 117.56125 | 7983 ft | 189 kts | 226° |
| 2026-04-28 02:41 | -22.01578 | 117.55091 | 7983 ft | 189 kts | 227° |
| 2026-04-28 02:41 | -22.02490 | 117.54064 | 7984 ft | 189 kts | 227° |
| 2026-04-28 02:42 | -22.03396 | 117.53043 | 7986 ft | 189 kts | 227° |
| 2026-04-28 02:42 | -22.04311 | 117.52011 | 7985 ft | 189 kts | 227° |
| 2026-04-28 02:42 | -22.05228 | 117.50977 | 7981 ft | 189 kts | 227° |
| 2026-04-28 02:42 | -22.06132 | 117.49957 | 7983 ft | 189 kts | 226° |
| 2026-04-28 02:43 | -22.07043 | 117.48930 | 8007 ft | 187 kts | 227° |
| 2026-04-28 02:43 | -22.07953 | 117.47903 | 8012 ft | 187 kts | 226° |
| 2026-04-28 02:43 | -22.08850 | 117.46889 | 8013 ft | 188 kts | 227° |
| 2026-04-28 02:43 | -22.09762 | 117.45856 | 8013 ft | 188 kts | 227° |
| 2026-04-28 02:44 | -22.10672 | 117.44824 | 8009 ft | 188 kts | 227° |
| 2026-04-28 02:44 | -22.11599 | 117.43775 | 8007 ft | 188 kts | 227° |
| 2026-04-28 02:44 | -22.12510 | 117.42746 | 8008 ft | 188 kts | 227° |
| 2026-04-28 02:44 | -22.13405 | 117.41736 | 8007 ft | 188 kts | 227° |
| 2026-04-28 02:45 | -22.14312 | 117.40710 | 8008 ft | 188 kts | 227° |
| 2026-04-28 02:45 | -22.15221 | 117.39683 | 8008 ft | 188 kts | 227° |
| 2026-04-28 02:45 | -22.16132 | 117.38654 | 8009 ft | 187 kts | 227° |
| 2026-04-28 02:45 | -22.17037 | 117.37631 | 8008 ft | 188 kts | 227° |
| 2026-04-28 02:46 | -22.17944 | 117.36604 | 8010 ft | 187 kts | 226° |
| 2026-04-28 02:46 | -22.18849 | 117.35581 | 8009 ft | 187 kts | 227° |
| 2026-04-28 02:46 | -22.19751 | 117.34561 | 8008 ft | 187 kts | 227° |
| 2026-04-28 02:46 | -22.20669 | 117.33523 | 8009 ft | 187 kts | 227° |
| 2026-04-28 02:47 | -22.21573 | 117.32501 | 8009 ft | 187 kts | 227° |
| 2026-04-28 02:47 | -22.22473 | 117.31481 | 8008 ft | 187 kts | 227° |
| 2026-04-28 02:47 | -22.23375 | 117.30460 | 8009 ft | 187 kts | 227° |
| 2026-04-28 02:47 | -22.24284 | 117.29431 | 8010 ft | 188 kts | 228° |
| 2026-04-28 02:48 | -22.25179 | 117.28418 | 8009 ft | 188 kts | 228° |
| 2026-04-28 02:48 | -22.26091 | 117.27384 | 8007 ft | 188 kts | 228° |
| 2026-04-28 02:48 | -22.27004 | 117.26350 | 8006 ft | 188 kts | 227° |
| 2026-04-28 02:48 | -22.27908 | 117.25326 | 8008 ft | 187 kts | 227° |
| 2026-04-28 02:49 | -22.28804 | 117.24310 | 8007 ft | 187 kts | 227° |
| 2026-04-28 02:49 | -22.29705 | 117.23289 | 8002 ft | 187 kts | 227° |
| 2026-04-28 02:49 | -22.30614 | 117.22258 | 8005 ft | 187 kts | 227° |
| 2026-04-28 02:49 | -22.31510 | 117.21242 | 8006 ft | 187 kts | 228° |
| 2026-04-28 02:50 | -22.32408 | 117.20223 | 8006 ft | 187 kts | 227° |
| 2026-04-28 02:50 | -22.33314 | 117.19196 | 8004 ft | 188 kts | 227° |
| 2026-04-28 02:50 | -22.34220 | 117.18167 | 8004 ft | 188 kts | 228° |
| 2026-04-28 02:50 | -22.35118 | 117.17149 | 8004 ft | 188 kts | 228° |
| 2026-04-28 02:51 | -22.36017 | 117.16129 | 8002 ft | 188 kts | 228° |
| 2026-04-28 02:51 | -22.36925 | 117.15097 | 8003 ft | 188 kts | 228° |
| 2026-04-28 02:51 | -22.37832 | 117.14068 | 8003 ft | 187 kts | 228° |
| 2026-04-28 02:51 | -22.38732 | 117.13045 | 7908 ft | 193 kts | 228° |
| 2026-04-28 02:52 | -22.39683 | 117.11964 | 7607 ft | 203 kts | 228° |
| 2026-04-28 02:52 | -22.40691 | 117.10819 | 7299 ft | 209 kts | 228° |
| 2026-04-28 02:52 | -22.41691 | 117.09680 | 6994 ft | 213 kts | 228° |
| 2026-04-28 02:52 | -22.42722 | 117.08509 | 6685 ft | 215 kts | 227° |
| 2026-04-28 02:53 | -22.43770 | 117.07317 | 6371 ft | 216 kts | 227° |
| 2026-04-28 02:53 | -22.44804 | 117.06140 | 6057 ft | 215 kts | 227° |
| 2026-04-28 02:53 | -22.45780 | 117.05030 | 5774 ft | 214 kts | 227° |
| 2026-04-28 02:53 | -22.46803 | 117.03867 | 5550 ft | 210 kts | 227° |
| 2026-04-28 02:54 | -22.47910 | 117.02899 | 5393 ft | 201 kts | 200° |
| 2026-04-28 02:54 | -22.49209 | 117.02840 | 5389 ft | 174 kts | 160° |
| 2026-04-28 02:54 | -22.50234 | 117.03235 | 5373 ft | 141 kts | 152° |
| 2026-04-28 02:54 | -22.51090 | 117.03629 | 5380 ft | 126 kts | 149° |
| 2026-04-28 02:55 | -22.51893 | 117.04025 | 5399 ft | 133 kts | 147° |
| 2026-04-28 02:55 | -22.52779 | 117.04472 | 5403 ft | 145 kts | 148° |
| 2026-04-28 02:55 | -22.53713 | 117.04944 | 5396 ft | 149 kts | 148° |
| 2026-04-28 02:55 | -22.54657 | 117.05422 | 5393 ft | 149 kts | 148° |
| 2026-04-28 02:56 | -22.55401 | 117.06100 | 5390 ft | 132 kts | 110° |
| 2026-04-28 02:56 | -22.55580 | 117.07021 | 5262 ft | 124 kts | 86° |
| 2026-04-28 02:56 | -22.55590 | 117.07955 | 5087 ft | 123 kts | 82° |
| 2026-04-28 02:56 | -22.55558 | 117.08812 | 4908 ft | 106 kts | 79° |
| 2026-04-28 02:57 | -22.55517 | 117.09618 | 4733 ft | 114 kts | 81° |
| 2026-04-28 02:57 | -22.55509 | 117.10477 | 4492 ft | 111 kts | 82° |
| 2026-04-28 02:57 | -22.55474 | 117.11294 | 4251 ft | 109 kts | 81° |
| 2026-04-28 02:57 | -22.55433 | 117.12167 | 4106 ft | 124 kts | 80° |
| 2026-04-28 02:58 | -22.55326 | 117.13110 | 4076 ft | 125 kts | 74° |
| 2026-04-28 02:58 | -22.55240 | 117.14079 | 3953 ft | 134 kts | 80° |
| 2026-04-28 02:58 | -22.55157 | 117.15105 | 3790 ft | 139 kts | 79° |
| 2026-04-28 02:58 | -22.55076 | 117.16072 | 3592 ft | 124 kts | 80° |
| 2026-04-28 02:59 | -22.54983 | 117.16981 | 3448 ft | 112 kts | 77° |
| 2026-04-28 02:59 | -22.54941 | 117.17723 | 3353 ft | 97 kts | 81° |
| 2026-04-28 02:59 | -22.54844 | 117.18463 | 3275 ft | 100 kts | 72° |
| 2026-04-28 02:59 | -22.54761 | 117.19216 | 3142 ft | 100 kts | 80° |
| 2026-04-28 03:00 | -22.54691 | 117.19965 | 3038 ft | 96 kts | 77° |
| 2026-04-28 03:00 | -22.54627 | 117.20683 | 2897 ft | 95 kts | 78° |
| 2026-04-28 03:00 | -22.54559 | 117.21398 | 2775 ft | 93 kts | 79° |
| 2026-04-28 03:00 | -22.54498 | 117.22067 | 2663 ft | 89 kts | 75° |
| 2026-04-28 03:01 | -22.54420 | 117.22728 | 2565 ft | 87 kts | 75° |
| 2026-04-28 03:01 | -22.54354 | 117.23377 | 2447 ft | 88 kts | 79° |
| 2026-04-28 03:01 | -22.54293 | 117.24030 | 2299 ft | 84 kts | 77° |
| 2026-04-28 03:01 | -22.54234 | 117.24657 | 2159 ft | 83 kts | 77° |
| 2026-04-28 03:02 | -22.54181 | 117.25278 | 2085 ft | 82 kts | 75° |
| 2026-04-28 03:02 | -22.54118 | 117.25886 | 2016 ft | 81 kts | 78° |
| 2026-04-28 03:02 | -22.54071 | 117.26495 | 1914 ft | 80 kts | 79° |
| 2026-04-28 03:02 | -22.54024 | 117.27056 | 1864 ft | 64 kts | 81° |
| 2026-04-28 03:03 | -22.53984 | 117.27447 | 1868 ft | 42 kts | 84° |
| 2026-04-28 03:03 | -22.53958 | 117.27711 | 1876 ft | 29 kts | 84° |
| 2026-04-28 03:03 | -22.53947 | 117.27901 | 1880 ft | 22 kts | 88° |
| 2026-04-28 03:03 | -22.53995 | 117.28014 | 1880 ft | 16 kts | 172° |
| 2026-04-28 03:04 | -22.54134 | 117.28038 | 1877 ft | 21 kts | 146° |
| 2026-04-28 03:04 | -22.54204 | 117.28101 | 1876 ft | 0 kts | 264° |